sensor_id;sensor_type;location;lat;lon;timestamp;P1;durP1;ratioP1;P2;durP2;ratioP2
22606;SDS011;11470;20.968;105.834;2023-08-24T00:02:11;26.07;;;18.57;;
22606;SDS011;11470;20.968;105.834;2023-08-24T00:07:15;31.17;;;24.13;;
22606;SDS011;11470;20.968;105.834;2023-08-24T00:12:21;22.10;;;17.98;;
22606;SDS011;11470;20.968;105.834;2023-08-24T00:17:26;30.15;;;21.63;;
22606;SDS011;11470;20.968;105.834;2023-08-24T00:22:31;19.67;;;14.93;;
22606;SDS011;11470;20.968;105.834;2023-08-24T00:27:36;30.30;;;25.25;;
22606;SDS011;11470;20.968;105.834;2023-08-24T00:32:42;26.95;;;21.60;;
22606;SDS011;11470;20.968;105.834;2023-08-24T00:37:47;27.25;;;21.67;;
22606;SDS011;11470;20.968;105.834;2023-08-24T00:42:54;30.33;;;22.77;;
22606;SDS011;11470;20.968;105.834;2023-08-24T00:48:02;29.17;;;21.92;;
22606;SDS011;11470;20.968;105.834;2023-08-24T00:53:09;31.50;;;23.48;;
22606;SDS011;11470;20.968;105.834;2023-08-24T00:58:14;26.25;;;20.20;;
22606;SDS011;11470;20.968;105.834;2023-08-24T01:03:21;33.20;;;25.17;;
22606;SDS011;11470;20.968;105.834;2023-08-24T01:08:27;26.88;;;18.73;;
22606;SDS011;11470;20.968;105.834;2023-08-24T01:13:53;22.65;;;18.92;;
22606;SDS011;11470;20.968;105.834;2023-08-24T01:19:06;12.38;;;10.65;;
22606;SDS011;11470;20.968;105.834;2023-08-24T01:24:38;19.25;;;13.82;;
22606;SDS011;11470;20.968;105.834;2023-08-24T01:29:48;35.38;;;21.83;;
22606;SDS011;11470;20.968;105.834;2023-08-24T01:34:56;24.40;;;17.60;;
22606;SDS011;11470;20.968;105.834;2023-08-24T01:45:30;20.33;;;13.45;;
22606;SDS011;11470;20.968;105.834;2023-08-24T01:50:37;28.25;;;18.35;;
22606;SDS011;11470;20.968;105.834;2023-08-24T01:55:42;24.63;;;15.90;;
22606;SDS011;11470;20.968;105.834;2023-08-24T02:00:50;24.17;;;17.10;;
22606;SDS011;11470;20.968;105.834;2023-08-24T02:05:55;24.85;;;18.77;;
22606;SDS011;11470;20.968;105.834;2023-08-24T02:11:17;23.02;;;13.52;;
22606;SDS011;11470;20.968;105.834;2023-08-24T02:16:22;33.00;;;20.63;;
22606;SDS011;11470;20.968;105.834;2023-08-24T02:21:27;29.00;;;17.70;;
22606;SDS011;11470;20.968;105.834;2023-08-24T02:26:33;19.02;;;13.98;;
22606;SDS011;11470;20.968;105.834;2023-08-24T02:31:39;26.52;;;19.73;;
22606;SDS011;11470;20.968;105.834;2023-08-24T02:36:44;34.60;;;22.08;;
22606;SDS011;11470;20.968;105.834;2023-08-24T02:41:50;23.25;;;15.80;;
22606;SDS011;11470;20.968;105.834;2023-08-24T02:46:54;35.83;;;23.50;;
22606;SDS011;11470;20.968;105.834;2023-08-24T02:51:59;28.37;;;19.77;;
22606;SDS011;11470;20.968;105.834;2023-08-24T02:57:04;30.13;;;18.33;;
22606;SDS011;11470;20.968;105.834;2023-08-24T03:02:10;39.63;;;27.67;;
22606;SDS011;11470;20.968;105.834;2023-08-24T03:07:16;26.08;;;17.42;;
22606;SDS011;11470;20.968;105.834;2023-08-24T03:12:21;27.77;;;19.73;;
22606;SDS011;11470;20.968;105.834;2023-08-24T03:17:26;38.45;;;27.38;;
22606;SDS011;11470;20.968;105.834;2023-08-24T03:22:32;21.75;;;15.95;;
22606;SDS011;11470;20.968;105.834;2023-08-24T03:27:37;46.45;;;30.88;;
22606;SDS011;11470;20.968;105.834;2023-08-24T03:32:43;38.55;;;27.50;;
22606;SDS011;11470;20.968;105.834;2023-08-24T03:37:48;52.92;;;35.40;;
22606;SDS011;11470;20.968;105.834;2023-08-24T03:47:58;35.53;;;25.85;;
22606;SDS011;11470;20.968;105.834;2023-08-24T03:53:05;24.65;;;17.90;;
22606;SDS011;11470;20.968;105.834;2023-08-24T03:58:10;51.47;;;37.58;;
22606;SDS011;11470;20.968;105.834;2023-08-24T04:03:16;46.33;;;30.65;;
22606;SDS011;11470;20.968;105.834;2023-08-24T04:13:27;28.45;;;20.38;;
22606;SDS011;11470;20.968;105.834;2023-08-24T04:18:32;35.95;;;25.50;;
22606;SDS011;11470;20.968;105.834;2023-08-24T04:28:49;27.48;;;19.33;;
22606;SDS011;11470;20.968;105.834;2023-08-24T04:33:55;42.65;;;27.30;;
22606;SDS011;11470;20.968;105.834;2023-08-24T04:39:03;26.75;;;19.17;;
22606;SDS011;11470;20.968;105.834;2023-08-24T04:44:08;18.58;;;14.43;;
22606;SDS011;11470;20.968;105.834;2023-08-24T04:49:13;18.80;;;13.93;;
22606;SDS011;11470;20.968;105.834;2023-08-24T04:54:18;26.58;;;16.15;;
22606;SDS011;11470;20.968;105.834;2023-08-24T05:04:28;28.85;;;18.15;;
22606;SDS011;11470;20.968;105.834;2023-08-24T05:09:36;23.40;;;16.33;;
22606;SDS011;11470;20.968;105.834;2023-08-24T05:14:41;25.77;;;18.60;;
22606;SDS011;11470;20.968;105.834;2023-08-24T05:24:55;25.23;;;17.88;;
22606;SDS011;11470;20.968;105.834;2023-08-24T05:35:06;18.13;;;13.93;;
22606;SDS011;11470;20.968;105.834;2023-08-24T05:40:12;25.13;;;18.00;;
22606;SDS011;11470;20.968;105.834;2023-08-24T05:45:17;24.92;;;17.90;;
22606;SDS011;11470;20.968;105.834;2023-08-24T05:50:25;16.52;;;13.02;;
22606;SDS011;11470;20.968;105.834;2023-08-24T05:55:30;21.02;;;15.98;;
22606;SDS011;11470;20.968;105.834;2023-08-24T06:00:37;20.52;;;13.57;;
22606;SDS011;11470;20.968;105.834;2023-08-24T06:05:41;16.63;;;12.07;;
22606;SDS011;11470;20.968;105.834;2023-08-24T06:10:47;20.23;;;13.48;;
22606;SDS011;11470;20.968;105.834;2023-08-24T06:15:52;19.27;;;14.60;;
22606;SDS011;11470;20.968;105.834;2023-08-24T06:20:58;20.00;;;15.35;;
22606;SDS011;11470;20.968;105.834;2023-08-24T06:26:02;19.85;;;15.25;;
22606;SDS011;11470;20.968;105.834;2023-08-24T06:31:12;21.60;;;14.60;;
22606;SDS011;11470;20.968;105.834;2023-08-24T06:36:18;16.15;;;13.75;;
22606;SDS011;11470;20.968;105.834;2023-08-24T06:41:27;19.67;;;14.52;;
22606;SDS011;11470;20.968;105.834;2023-08-24T06:46:33;22.75;;;15.55;;
22606;SDS011;11470;20.968;105.834;2023-08-24T06:51:44;22.75;;;18.63;;
22606;SDS011;11470;20.968;105.834;2023-08-24T06:56:49;17.33;;;15.05;;
22606;SDS011;11470;20.968;105.834;2023-08-24T07:02:01;17.85;;;13.45;;
22606;SDS011;11470;20.968;105.834;2023-08-24T07:07:21;17.20;;;14.20;;
22606;SDS011;11470;20.968;105.834;2023-08-24T07:12:27;18.25;;;14.23;;
22606;SDS011;11470;20.968;105.834;2023-08-24T07:17:32;16.88;;;12.63;;
22606;SDS011;11470;20.968;105.834;2023-08-24T07:22:38;19.30;;;15.82;;
22606;SDS011;11470;20.968;105.834;2023-08-24T07:27:43;16.75;;;13.70;;
22606;SDS011;11470;20.968;105.834;2023-08-24T07:32:49;20.27;;;16.75;;
22606;SDS011;11470;20.968;105.834;2023-08-24T07:37:57;19.70;;;16.45;;
22606;SDS011;11470;20.968;105.834;2023-08-24T07:43:03;22.85;;;17.02;;
22606;SDS011;11470;20.968;105.834;2023-08-24T07:48:08;18.25;;;15.98;;
22606;SDS011;11470;20.968;105.834;2023-08-24T07:53:17;20.10;;;17.00;;
22606;SDS011;11470;20.968;105.834;2023-08-24T07:58:23;22.33;;;16.55;;
22606;SDS011;11470;20.968;105.834;2023-08-24T08:03:30;21.67;;;15.20;;
22606;SDS011;11470;20.968;105.834;2023-08-24T08:08:35;20.67;;;15.50;;
22606;SDS011;11470;20.968;105.834;2023-08-24T08:13:41;19.73;;;15.20;;
22606;SDS011;11470;20.968;105.834;2023-08-24T08:18:46;18.50;;;14.75;;
22606;SDS011;11470;20.968;105.834;2023-08-24T08:23:51;20.13;;;16.90;;
22606;SDS011;11470;20.968;105.834;2023-08-24T08:28:56;19.00;;;15.60;;
22606;SDS011;11470;20.968;105.834;2023-08-24T08:34:02;22.48;;;17.17;;
22606;SDS011;11470;20.968;105.834;2023-08-24T08:39:07;14.48;;;12.10;;
22606;SDS011;11470;20.968;105.834;2023-08-24T08:44:13;14.65;;;9.60;;
22606;SDS011;11470;20.968;105.834;2023-08-24T08:49:19;12.15;;;8.65;;
22606;SDS011;11470;20.968;105.834;2023-08-24T08:59:30;15.13;;;9.17;;
22606;SDS011;11470;20.968;105.834;2023-08-24T09:04:35;11.10;;;9.00;;
22606;SDS011;11470;20.968;105.834;2023-08-24T09:09:40;13.70;;;9.87;;
22606;SDS011;11470;20.968;105.834;2023-08-24T09:14:46;17.15;;;9.98;;
22606;SDS011;11470;20.968;105.834;2023-08-24T09:19:52;14.73;;;9.10;;
22606;SDS011;11470;20.968;105.834;2023-08-24T09:25:02;15.98;;;9.73;;
22606;SDS011;11470;20.968;105.834;2023-08-24T09:30:12;19.85;;;10.77;;
22606;SDS011;11470;20.968;105.834;2023-08-24T09:35:19;14.43;;;10.02;;
22606;SDS011;11470;20.968;105.834;2023-08-24T09:40:25;14.65;;;8.90;;
22606;SDS011;11470;20.968;105.834;2023-08-24T09:45:30;13.30;;;10.98;;
22606;SDS011;11470;20.968;105.834;2023-08-24T09:50:36;15.23;;;8.32;;
22606;SDS011;11470;20.968;105.834;2023-08-24T09:55:41;15.07;;;8.90;;
22606;SDS011;11470;20.968;105.834;2023-08-24T10:00:53;17.17;;;8.98;;
22606;SDS011;11470;20.968;105.834;2023-08-24T10:06:02;19.73;;;12.70;;
22606;SDS011;11470;20.968;105.834;2023-08-24T10:11:11;10.98;;;9.68;;
22606;SDS011;11470;20.968;105.834;2023-08-24T10:16:18;16.30;;;11.82;;
22606;SDS011;11470;20.968;105.834;2023-08-24T10:21:25;18.92;;;12.27;;
22606;SDS011;11470;20.968;105.834;2023-08-24T10:26:35;19.25;;;10.75;;
22606;SDS011;11470;20.968;105.834;2023-08-24T10:31:43;18.75;;;12.93;;
22606;SDS011;11470;20.968;105.834;2023-08-24T10:36:49;27.00;;;12.70;;
22606;SDS011;11470;20.968;105.834;2023-08-24T10:41:55;17.55;;;10.38;;
22606;SDS011;11470;20.968;105.834;2023-08-24T10:47:10;16.45;;;11.27;;
22606;SDS011;11470;20.968;105.834;2023-08-24T10:52:33;17.02;;;9.93;;
22606;SDS011;11470;20.968;105.834;2023-08-24T10:57:42;14.77;;;9.60;;
22606;SDS011;11470;20.968;105.834;2023-08-24T11:02:49;14.65;;;10.50;;
22606;SDS011;11470;20.968;105.834;2023-08-24T11:08:02;14.75;;;9.48;;
22606;SDS011;11470;20.968;105.834;2023-08-24T11:13:11;15.57;;;9.07;;
22606;SDS011;11470;20.968;105.834;2023-08-24T11:23:26;14.75;;;7.95;;
22606;SDS011;11470;20.968;105.834;2023-08-24T11:28:31;12.70;;;6.85;;
22606;SDS011;11470;20.968;105.834;2023-08-24T11:38:42;13.13;;;7.63;;
22606;SDS011;11470;20.968;105.834;2023-08-24T11:43:47;10.98;;;7.30;;
22606;SDS011;11470;20.968;105.834;2023-08-24T11:48:54;11.88;;;8.07;;
22606;SDS011;11470;20.968;105.834;2023-08-24T11:53:59;10.20;;;7.65;;
22606;SDS011;11470;20.968;105.834;2023-08-24T11:59:05;15.15;;;7.20;;
22606;SDS011;11470;20.968;105.834;2023-08-24T12:04:14;16.77;;;8.95;;
22606;SDS011;11470;20.968;105.834;2023-08-24T12:09:19;10.95;;;7.97;;
22606;SDS011;11470;20.968;105.834;2023-08-24T12:14:25;10.48;;;7.15;;
22606;SDS011;11470;20.968;105.834;2023-08-24T12:19:30;16.15;;;8.85;;
22606;SDS011;11470;20.968;105.834;2023-08-24T12:24:35;12.75;;;8.40;;
22606;SDS011;11470;20.968;105.834;2023-08-24T12:29:45;12.80;;;8.23;;
22606;SDS011;11470;20.968;105.834;2023-08-24T12:34:50;12.90;;;8.68;;
22606;SDS011;11470;20.968;105.834;2023-08-24T12:45:05;14.57;;;9.07;;
22606;SDS011;11470;20.968;105.834;2023-08-24T12:50:10;19.27;;;10.00;;
22606;SDS011;11470;20.968;105.834;2023-08-24T12:55:16;18.65;;;10.18;;
22606;SDS011;11470;20.968;105.834;2023-08-24T13:00:24;13.57;;;9.50;;
22606;SDS011;11470;20.968;105.834;2023-08-24T13:05:31;14.18;;;9.55;;
22606;SDS011;11470;20.968;105.834;2023-08-24T13:10:36;12.73;;;9.25;;
22606;SDS011;11470;20.968;105.834;2023-08-24T13:15:41;18.83;;;9.82;;
22606;SDS011;11470;20.968;105.834;2023-08-24T13:20:47;13.77;;;9.85;;
22606;SDS011;11470;20.968;105.834;2023-08-24T13:25:52;14.40;;;8.73;;
22606;SDS011;11470;20.968;105.834;2023-08-24T13:31:32;19.25;;;9.45;;
22606;SDS011;11470;20.968;105.834;2023-08-24T13:36:37;13.18;;;8.82;;
22606;SDS011;11470;20.968;105.834;2023-08-24T13:41:43;16.08;;;8.77;;
22606;SDS011;11470;20.968;105.834;2023-08-24T13:46:50;11.10;;;8.30;;
22606;SDS011;11470;20.968;105.834;2023-08-24T13:51:56;12.60;;;8.68;;
22606;SDS011;11470;20.968;105.834;2023-08-24T13:57:00;10.15;;;8.15;;
22606;SDS011;11470;20.968;105.834;2023-08-24T14:02:09;14.20;;;10.13;;
22606;SDS011;11470;20.968;105.834;2023-08-24T14:07:15;13.70;;;8.63;;
22606;SDS011;11470;20.968;105.834;2023-08-24T14:12:21;15.57;;;9.52;;
22606;SDS011;11470;20.968;105.834;2023-08-24T14:17:26;20.13;;;10.80;;
22606;SDS011;11470;20.968;105.834;2023-08-24T14:22:32;15.38;;;10.10;;
22606;SDS011;11470;20.968;105.834;2023-08-24T14:27:38;13.10;;;9.65;;
22606;SDS011;11470;20.968;105.834;2023-08-24T14:32:56;13.25;;;8.98;;
22606;SDS011;11470;20.968;105.834;2023-08-24T14:38:02;13.68;;;9.52;;
22606;SDS011;11470;20.968;105.834;2023-08-24T14:43:07;14.25;;;9.52;;
22606;SDS011;11470;20.968;105.834;2023-08-24T14:49:00;17.88;;;8.68;;
22606;SDS011;11470;20.968;105.834;2023-08-24T15:07:32;17.45;;;10.40;;
22606;SDS011;11470;20.968;105.834;2023-08-24T15:12:49;14.57;;;9.30;;
22606;SDS011;11470;20.968;105.834;2023-08-24T15:18:21;14.35;;;10.30;;
22606;SDS011;11470;20.968;105.834;2023-08-24T15:23:39;22.02;;;12.27;;
22606;SDS011;11470;20.968;105.834;2023-08-24T15:29:12;15.25;;;10.82;;
22606;SDS011;11470;20.968;105.834;2023-08-24T15:34:24;18.38;;;11.38;;
22606;SDS011;11470;20.968;105.834;2023-08-24T15:39:33;26.73;;;13.85;;
22606;SDS011;11470;20.968;105.834;2023-08-24T15:44:41;19.58;;;10.95;;
22606;SDS011;11470;20.968;105.834;2023-08-24T15:49:48;22.17;;;12.73;;
22606;SDS011;11470;20.968;105.834;2023-08-24T15:54:54;22.50;;;13.40;;
22606;SDS011;11470;20.968;105.834;2023-08-24T16:00:12;22.42;;;14.18;;
22606;SDS011;11470;20.968;105.834;2023-08-24T16:05:57;24.63;;;13.35;;
22606;SDS011;11470;20.968;105.834;2023-08-24T16:11:01;21.97;;;13.57;;
22606;SDS011;11470;20.968;105.834;2023-08-24T16:16:07;25.55;;;17.95;;
22606;SDS011;11470;20.968;105.834;2023-08-24T16:21:15;28.73;;;15.43;;
22606;SDS011;11470;20.968;105.834;2023-08-24T16:26:20;22.20;;;16.15;;
22606;SDS011;11470;20.968;105.834;2023-08-24T16:31:25;25.63;;;15.23;;
22606;SDS011;11470;20.968;105.834;2023-08-24T16:36:34;20.42;;;14.02;;
22606;SDS011;11470;20.968;105.834;2023-08-24T16:41:42;20.88;;;14.13;;
22606;SDS011;11470;20.968;105.834;2023-08-24T16:46:47;27.40;;;15.23;;
22606;SDS011;11470;20.968;105.834;2023-08-24T16:51:53;26.60;;;15.30;;
22606;SDS011;11470;20.968;105.834;2023-08-24T16:56:58;22.17;;;14.83;;
22606;SDS011;11470;20.968;105.834;2023-08-24T17:02:02;19.55;;;13.63;;
22606;SDS011;11470;20.968;105.834;2023-08-24T17:07:08;34.25;;;16.60;;
22606;SDS011;11470;20.968;105.834;2023-08-24T17:12:13;29.65;;;16.10;;
22606;SDS011;11470;20.968;105.834;2023-08-24T17:17:21;25.15;;;15.25;;
22606;SDS011;11470;20.968;105.834;2023-08-24T17:22:27;19.55;;;13.45;;
22606;SDS011;11470;20.968;105.834;2023-08-24T17:27:32;18.73;;;11.98;;
22606;SDS011;11470;20.968;105.834;2023-08-24T17:32:37;26.80;;;14.20;;
22606;SDS011;11470;20.968;105.834;2023-08-24T17:37:42;21.23;;;13.98;;
22606;SDS011;11470;20.968;105.834;2023-08-24T17:47:52;25.08;;;15.68;;
22606;SDS011;11470;20.968;105.834;2023-08-24T17:52:58;31.45;;;21.05;;
22606;SDS011;11470;20.968;105.834;2023-08-24T17:58:03;34.65;;;21.50;;
22606;SDS011;11470;20.968;105.834;2023-08-24T18:03:08;38.90;;;26.00;;
22606;SDS011;11470;20.968;105.834;2023-08-24T18:08:13;23.02;;;16.15;;
22606;SDS011;11470;20.968;105.834;2023-08-24T18:13:18;23.73;;;15.63;;
22606;SDS011;11470;20.968;105.834;2023-08-24T18:18:23;25.60;;;17.07;;
22606;SDS011;11470;20.968;105.834;2023-08-24T18:23:28;23.95;;;14.88;;
22606;SDS011;11470;20.968;105.834;2023-08-24T18:28:33;25.67;;;17.40;;
22606;SDS011;11470;20.968;105.834;2023-08-24T18:33:37;22.33;;;15.75;;
22606;SDS011;11470;20.968;105.834;2023-08-24T18:38:43;24.20;;;15.20;;
22606;SDS011;11470;20.968;105.834;2023-08-24T18:43:47;24.08;;;16.23;;
22606;SDS011;11470;20.968;105.834;2023-08-24T18:48:53;23.80;;;16.95;;
22606;SDS011;11470;20.968;105.834;2023-08-24T18:53:58;24.98;;;18.00;;
22606;SDS011;11470;20.968;105.834;2023-08-24T18:59:03;23.95;;;17.08;;
22606;SDS011;11470;20.968;105.834;2023-08-24T19:04:08;20.17;;;16.23;;
22606;SDS011;11470;20.968;105.834;2023-08-24T19:09:13;26.40;;;16.23;;
22606;SDS011;11470;20.968;105.834;2023-08-24T19:14:20;21.27;;;14.10;;
22606;SDS011;11470;20.968;105.834;2023-08-24T19:19:25;18.88;;;13.68;;
22606;SDS011;11470;20.968;105.834;2023-08-24T19:24:30;19.92;;;14.40;;
22606;SDS011;11470;20.968;105.834;2023-08-24T19:29:36;18.83;;;13.15;;
22606;SDS011;11470;20.968;105.834;2023-08-24T19:34:42;15.30;;;10.60;;
22606;SDS011;11470;20.968;105.834;2023-08-24T19:39:47;18.77;;;12.60;;
22606;SDS011;11470;20.968;105.834;2023-08-24T19:44:51;14.30;;;9.73;;
22606;SDS011;11470;20.968;105.834;2023-08-24T19:49:57;14.10;;;10.23;;
22606;SDS011;11470;20.968;105.834;2023-08-24T19:55:01;18.20;;;12.40;;
22606;SDS011;11470;20.968;105.834;2023-08-24T20:00:07;17.98;;;10.93;;
22606;SDS011;11470;20.968;105.834;2023-08-24T20:10:17;16.70;;;10.63;;
22606;SDS011;11470;20.968;105.834;2023-08-24T20:15:24;14.30;;;10.25;;
22606;SDS011;11470;20.968;105.834;2023-08-24T20:20:29;15.13;;;11.63;;
22606;SDS011;11470;20.968;105.834;2023-08-24T20:25:34;14.57;;;10.90;;
22606;SDS011;11470;20.968;105.834;2023-08-24T20:30:40;20.77;;;11.90;;
22606;SDS011;11470;20.968;105.834;2023-08-24T20:35:44;19.50;;;12.30;;
22606;SDS011;11470;20.968;105.834;2023-08-24T20:40:50;17.02;;;12.02;;
22606;SDS011;11470;20.968;105.834;2023-08-24T20:45:56;24.40;;;12.65;;
22606;SDS011;11470;20.968;105.834;2023-08-24T20:51:01;16.63;;;11.43;;
22606;SDS011;11470;20.968;105.834;2023-08-24T20:56:07;17.35;;;11.90;;
22606;SDS011;11470;20.968;105.834;2023-08-24T21:01:14;19.00;;;11.55;;
22606;SDS011;11470;20.968;105.834;2023-08-24T21:06:19;14.47;;;11.03;;
22606;SDS011;11470;20.968;105.834;2023-08-24T21:11:24;17.73;;;10.73;;
22606;SDS011;11470;20.968;105.834;2023-08-24T21:16:29;18.20;;;11.00;;
22606;SDS011;11470;20.968;105.834;2023-08-24T21:21:34;13.90;;;9.07;;
22606;SDS011;11470;20.968;105.834;2023-08-24T21:26:39;12.20;;;7.37;;
22606;SDS011;11470;20.968;105.834;2023-08-24T21:31:45;14.15;;;8.95;;
22606;SDS011;11470;20.968;105.834;2023-08-24T21:36:50;15.98;;;10.68;;
22606;SDS011;11470;20.968;105.834;2023-08-24T21:41:55;13.98;;;9.80;;
22606;SDS011;11470;20.968;105.834;2023-08-24T21:47:02;17.13;;;9.10;;
22606;SDS011;11470;20.968;105.834;2023-08-24T21:52:07;18.10;;;12.27;;
22606;SDS011;11470;20.968;105.834;2023-08-24T21:57:12;21.65;;;14.10;;
22606;SDS011;11470;20.968;105.834;2023-08-24T22:02:35;19.38;;;14.65;;
22606;SDS011;11470;20.968;105.834;2023-08-24T22:07:40;22.80;;;15.23;;
22606;SDS011;11470;20.968;105.834;2023-08-24T22:12:51;18.35;;;12.65;;
22606;SDS011;11470;20.968;105.834;2023-08-24T22:17:56;19.52;;;11.43;;
22606;SDS011;11470;20.968;105.834;2023-08-24T22:28:07;26.55;;;13.60;;
22606;SDS011;11470;20.968;105.834;2023-08-24T22:33:12;26.35;;;19.50;;
22606;SDS011;11470;20.968;105.834;2023-08-24T22:38:17;25.43;;;18.67;;
22606;SDS011;11470;20.968;105.834;2023-08-24T22:43:22;26.30;;;19.00;;
22606;SDS011;11470;20.968;105.834;2023-08-24T22:48:27;30.33;;;20.07;;
22606;SDS011;11470;20.968;105.834;2023-08-24T22:53:32;30.70;;;21.88;;
22606;SDS011;11470;20.968;105.834;2023-08-24T22:58:37;35.92;;;23.65;;
22606;SDS011;11470;20.968;105.834;2023-08-24T23:03:42;35.40;;;24.13;;
22606;SDS011;11470;20.968;105.834;2023-08-24T23:08:47;27.70;;;17.70;;
22606;SDS011;11470;20.968;105.834;2023-08-24T23:13:55;26.35;;;17.75;;
22606;SDS011;11470;20.968;105.834;2023-08-24T23:18:59;27.13;;;19.38;;
22606;SDS011;11470;20.968;105.834;2023-08-24T23:24:05;39.75;;;22.35;;
22606;SDS011;11470;20.968;105.834;2023-08-24T23:29:31;43.03;;;24.98;;
22606;SDS011;11470;20.968;105.834;2023-08-24T23:34:36;35.70;;;24.03;;
22606;SDS011;11470;20.968;105.834;2023-08-24T23:39:41;34.93;;;22.17;;
22606;SDS011;11470;20.968;105.834;2023-08-24T23:44:46;36.20;;;23.77;;
22606;SDS011;11470;20.968;105.834;2023-08-24T23:49:52;41.97;;;25.52;;
22606;SDS011;11470;20.968;105.834;2023-08-24T23:55:00;41.13;;;27.25;;
